createdAt,value
2023-01-15T00:01:35.830Z,60.60
2023-01-15T00:04:09.730Z,55.40
2023-01-15T00:06:44.123Z,53.10
2023-01-15T00:09:17.701Z,57.60
2023-01-15T00:11:49.927Z,52.90
2023-01-15T00:14:22.249Z,53.60
2023-01-15T00:16:55.405Z,48.70
2023-01-15T00:19:27.948Z,55.80
2023-01-15T00:22:01.518Z,62.70
2023-01-15T00:24:51.043Z,65.80
2023-01-15T00:27:41.945Z,52.50
2023-01-15T00:30:17.874Z,59.00
2023-01-15T00:32:50.287Z,50.30
2023-01-15T00:35:24.550Z,56.90
2023-01-15T00:37:56.870Z,48.40
2023-01-15T00:40:29.198Z,50.50
2023-01-15T00:43:01.352Z,52.40
2023-01-15T00:45:33.555Z,49.30
2023-01-15T00:48:05.812Z,56.60
2023-01-15T00:50:38.101Z,53.90
2023-01-15T00:53:10.277Z,53.10
2023-01-15T00:55:42.441Z,46.10
2023-01-15T00:58:14.781Z,47.20
2023-01-15T01:00:47.127Z,46.00
2023-01-15T01:03:19.333Z,49.30
2023-01-15T01:05:51.951Z,50.20
2023-01-15T01:08:24.316Z,45.70
2023-01-15T01:11:06.296Z,48.40
2023-01-15T01:13:40.377Z,46.70
2023-01-15T01:16:25.653Z,46.80
2023-01-15T01:18:57.957Z,51.50
2023-01-15T01:21:31.221Z,57.70
2023-01-15T01:24:03.956Z,47.70
2023-01-15T01:26:36.695Z,40.40
2023-01-15T01:29:08.973Z,43.20
2023-01-15T01:31:41.457Z,39.00
2023-01-15T01:34:15.048Z,40.10
2023-01-15T01:36:47.761Z,42.60
2023-01-15T01:39:20.842Z,39.00
2023-01-15T01:41:53.019Z,37.30
2023-01-15T01:45:08.149Z,40.80
2023-01-15T01:47:40.524Z,37.60
2023-01-15T01:50:15.690Z,40.90
2023-01-15T01:52:52.733Z,48.60
2023-01-15T01:55:27.905Z,39.50
2023-01-15T01:58:03.553Z,38.70
2023-01-15T02:00:37.318Z,37.50
2023-01-15T02:03:11.965Z,35.40
2023-01-15T02:05:50.371Z,37.00
2023-01-15T02:08:23.042Z,44.30
2023-01-15T02:10:57.483Z,44.50
2023-01-15T02:13:37.488Z,47.40
2023-01-15T02:16:14.985Z,38.00
2023-01-15T02:18:55.766Z,38.90
2023-01-15T02:21:40.120Z,39.60
2023-01-15T02:24:20.334Z,38.30
2023-01-15T02:27:08.652Z,40.40
2023-01-15T02:29:57.801Z,38.50
2023-01-15T02:32:41.329Z,36.40
2023-01-15T02:35:20.073Z,37.10
2023-01-15T02:37:56.616Z,38.50
2023-01-15T02:40:29.719Z,38.60
2023-01-15T02:43:02.579Z,41.60
2023-01-15T02:45:38.050Z,35.20
2023-01-15T02:48:15.064Z,34.40
2023-01-15T02:50:53.746Z,25.20
2023-01-15T02:53:31.074Z,34.50
2023-01-15T02:56:09.346Z,29.30
2023-01-15T02:58:44.020Z,36.00
2023-01-15T03:01:20.046Z,38.60
2023-01-15T03:03:57.975Z,32.70
2023-01-15T03:06:39.275Z,31.50
2023-01-15T03:09:12.327Z,27.70
2023-01-15T03:11:50.732Z,34.20
2023-01-15T03:14:27.027Z,30.60
2023-01-15T03:17:06.405Z,41.10
2023-01-15T03:19:45.114Z,42.60
2023-01-15T03:22:22.991Z,38.10
2023-01-15T03:24:58.902Z,35.90
2023-01-15T03:30:07.456Z,44.70
2023-01-15T03:32:40.429Z,34.00
2023-01-15T03:35:39.573Z,48.40
2023-01-15T03:38:12.195Z,57.60
2023-01-15T03:40:50.350Z,41.30
2023-01-15T03:43:43.143Z,51.60
2023-01-15T03:46:37.452Z,48.30
2023-01-15T03:49:15.722Z,51.60
2023-01-15T03:51:57.211Z,63.40
2023-01-15T03:54:37.069Z,46.20
2023-01-15T03:57:16.544Z,55.80
2023-01-15T03:59:54.571Z,62.80
2023-01-15T04:02:28.664Z,60.50
2023-01-15T04:05:01.947Z,60.10
2023-01-15T04:07:34.805Z,67.60
2023-01-15T04:10:10.969Z,61.10
2023-01-15T04:12:43.265Z,57.10
2023-01-15T04:15:15.641Z,45.90
2023-01-15T04:17:47.874Z,67.90
2023-01-15T04:20:20.508Z,67.50
2023-01-15T04:22:52.795Z,65.00
2023-01-15T04:25:24.946Z,67.10
2023-01-15T04:27:58.092Z,60.90
2023-01-15T04:30:30.420Z,57.90
2023-01-15T04:33:03.097Z,62.40
2023-01-15T04:35:36.241Z,62.70
2023-01-15T04:38:08.599Z,80.30
2023-01-15T04:40:58.270Z,55.50
2023-01-15T04:43:47.831Z,67.00
2023-01-15T04:46:24.330Z,57.80
2023-01-15T04:48:56.529Z,54.70
2023-01-15T04:51:29.024Z,60.50
2023-01-15T04:54:02.925Z,58.50
2023-01-15T04:56:38.964Z,64.80
2023-01-15T05:01:51.288Z,60.70
2023-01-15T05:04:26.765Z,68.10
2023-01-15T05:06:59.020Z,70.70
2023-01-15T05:09:31.231Z,60.70
2023-01-15T05:12:03.814Z,64.10
2023-01-15T05:14:36.034Z,49.20
2023-01-15T05:17:08.341Z,50.10
2023-01-15T05:19:40.726Z,56.90
2023-01-15T05:22:12.969Z,51.30
2023-01-15T05:24:45.218Z,60.10
2023-01-15T05:27:17.380Z,55.80
2023-01-15T05:29:49.622Z,62.20
2023-01-15T05:32:21.806Z,46.60
2023-01-15T05:34:54.138Z,52.00
2023-01-15T05:37:26.386Z,59.50
2023-01-15T05:39:58.589Z,50.40
2023-01-15T05:42:30.873Z,53.30
2023-01-15T05:45:03.222Z,46.90
2023-01-15T05:47:36.122Z,46.20
2023-01-15T05:50:09.810Z,42.30
2023-01-15T05:52:42.241Z,46.40
2023-01-15T05:55:14.398Z,47.60
2023-01-15T05:57:46.557Z,42.50
2023-01-15T06:00:20.974Z,46.20
2023-01-15T06:02:53.460Z,48.80
2023-01-15T06:05:25.801Z,44.60
2023-01-15T06:07:59.938Z,40.70
2023-01-15T06:10:33.338Z,43.00
2023-01-15T06:13:05.607Z,44.50
2023-01-15T06:15:38.079Z,46.20
2023-01-15T06:18:10.363Z,46.40
2023-01-15T06:20:43.922Z,43.40
2023-01-15T06:23:16.070Z,38.20
2023-01-15T06:25:48.756Z,40.40
2023-01-15T06:28:21.006Z,36.20
2023-01-15T06:30:53.516Z,41.30
2023-01-15T06:33:26.179Z,45.90
2023-01-15T06:35:58.344Z,48.90
2023-01-15T06:38:30.897Z,37.70
2023-01-15T06:41:04.768Z,31.20
2023-01-15T06:43:54.280Z,48.30
2023-01-15T06:46:43.926Z,44.30
2023-01-15T06:49:16.204Z,46.60
2023-01-15T06:51:48.522Z,41.00
2023-01-15T06:54:20.797Z,46.70
2023-01-15T06:56:53.168Z,48.20
2023-01-15T06:59:25.417Z,44.20
2023-01-15T07:01:57.715Z,48.40
2023-01-15T07:04:29.950Z,49.00
2023-01-15T07:07:02.186Z,58.00
2023-01-15T07:09:34.473Z,53.00
2023-01-15T07:12:07.228Z,50.70
2023-01-15T07:14:39.872Z,43.80
2023-01-15T07:17:12.185Z,49.80
2023-01-15T07:19:45.337Z,53.50
2023-01-15T07:22:17.537Z,62.00
2023-01-15T07:24:49.694Z,56.60
2023-01-15T07:27:21.876Z,55.60
2023-01-15T07:29:54.192Z,55.00
2023-01-15T07:32:30.112Z,60.40
2023-01-15T07:37:32.720Z,56.20
2023-01-15T07:40:05.263Z,64.90
2023-01-15T07:42:55.925Z,60.30
2023-01-15T07:45:45.854Z,62.90
2023-01-15T07:48:35.307Z,57.50
2023-01-15T07:51:07.979Z,61.10
2023-01-15T07:53:40.604Z,55.00
2023-01-15T07:56:13.946Z,54.60
2023-01-15T07:58:50.296Z,48.70
2023-01-15T08:01:22.700Z,53.40
2023-01-15T08:03:55.023Z,42.60
2023-01-15T08:06:27.337Z,45.60
2023-01-15T08:08:59.613Z,47.10
2023-01-15T08:11:49.278Z,48.40
2023-01-15T08:14:35.635Z,47.70
2023-01-15T08:17:07.855Z,51.40
2023-01-15T08:19:40.045Z,40.20
2023-01-15T08:22:13.381Z,49.70
2023-01-15T08:24:45.585Z,41.40
2023-01-15T08:27:17.789Z,39.70
2023-01-15T08:29:49.960Z,39.80
2023-01-15T08:32:22.186Z,35.00
2023-01-15T08:34:57.361Z,34.10
2023-01-15T08:37:29.657Z,37.70
2023-01-15T08:40:01.951Z,30.70
2023-01-15T08:42:34.167Z,35.60
2023-01-15T08:45:07.523Z,39.20
2023-01-15T08:47:39.920Z,37.40
2023-01-15T08:50:14.067Z,29.30
2023-01-15T08:52:46.345Z,28.70
2023-01-15T08:55:18.810Z,30.20
2023-01-15T08:57:51.995Z,28.30
2023-01-15T09:00:25.191Z,35.20
2023-01-15T09:02:57.418Z,33.10
2023-01-15T09:05:29.749Z,28.00
2023-01-15T09:08:01.962Z,28.90
2023-01-15T09:10:34.426Z,26.00
2023-01-15T09:13:07.353Z,30.30
2023-01-15T09:15:39.513Z,26.40
2023-01-15T09:18:12.821Z,29.60
2023-01-15T09:20:45.417Z,25.60
2023-01-15T09:23:17.605Z,29.40
2023-01-15T09:25:56.696Z,30.20
2023-01-15T09:28:29.675Z,31.10
2023-01-15T09:31:03.541Z,31.90
2023-01-15T09:33:35.808Z,37.30
2023-01-15T09:36:14.328Z,31.90
2023-01-15T09:38:46.654Z,32.20
2023-01-15T09:41:36.657Z,31.70
2023-01-15T09:44:21.764Z,32.60
2023-01-15T09:47:03.065Z,27.40
2023-01-15T09:49:52.197Z,28.20
2023-01-15T09:52:34.230Z,26.10
2023-01-15T09:55:15.303Z,28.50
2023-01-15T09:57:50.933Z,23.10
2023-01-15T10:00:26.241Z,25.50
2023-01-15T10:03:06.108Z,23.50
2023-01-15T10:05:44.557Z,24.80
2023-01-15T10:08:21.499Z,23.40
2023-01-15T10:10:57.919Z,25.40
2023-01-15T10:13:40.286Z,31.40
2023-01-15T10:16:14.127Z,30.30
2023-01-15T10:18:46.914Z,27.10
2023-01-15T10:21:32.983Z,20.10
2023-01-15T10:24:16.194Z,19.90
2023-01-15T10:26:54.908Z,22.30
2023-01-15T10:29:33.419Z,23.60
2023-01-15T10:32:23.536Z,22.50
2023-01-15T10:35:13.358Z,26.90
2023-01-15T10:37:50.691Z,22.90
2023-01-15T10:40:49.687Z,27.60
2023-01-15T10:43:26.354Z,20.00
2023-01-15T10:46:01.050Z,23.00
2023-01-15T10:48:39.721Z,28.20
2023-01-15T10:51:18.885Z,26.00
2023-01-15T10:53:56.494Z,24.80
2023-01-15T10:56:39.167Z,26.50
2023-01-15T10:59:22.313Z,26.30
2023-01-15T11:01:57.212Z,22.70
2023-01-15T11:04:32.959Z,22.50
2023-01-15T11:07:05.669Z,24.00
2023-01-15T11:09:39.450Z,22.60
2023-01-15T11:12:45.111Z,27.70
2023-01-15T11:15:41.330Z,24.20
2023-01-15T11:18:41.297Z,27.80
2023-01-15T11:21:19.702Z,26.70
2023-01-15T11:23:54.495Z,30.60
2023-01-15T11:26:29.911Z,28.80
2023-01-15T11:29:14.268Z,26.20
2023-01-15T11:31:46.560Z,24.90
2023-01-15T11:34:24.346Z,26.30
2023-01-15T11:37:06.465Z,25.50
2023-01-15T11:39:39.109Z,24.80
2023-01-15T11:42:37.224Z,26.90
2023-01-15T11:45:36.102Z,30.50
2023-01-15T11:48:36.087Z,27.90
2023-01-15T11:51:13.044Z,26.60
2023-01-15T11:53:50.896Z,28.60
2023-01-15T11:56:31.359Z,24.40
2023-01-15T11:59:10.613Z,26.10
2023-01-15T12:01:54.943Z,24.70
2023-01-15T12:04:32.299Z,26.70
2023-01-15T12:07:05.579Z,24.90
2023-01-15T12:10:07.621Z,26.30
2023-01-15T12:12:55.466Z,26.30
2023-01-15T12:15:42.852Z,28.50
2023-01-15T12:18:49.922Z,26.10
2023-01-15T12:21:44.612Z,24.20
2023-01-15T12:24:36.885Z,22.70
2023-01-15T12:27:30.270Z,21.90
2023-01-15T12:30:11.340Z,27.70
2023-01-15T12:32:48.075Z,24.80
2023-01-15T12:35:29.794Z,24.00
2023-01-15T12:38:12.001Z,23.50
2023-01-15T12:40:50.331Z,29.20
2023-01-15T12:43:44.803Z,28.00
2023-01-15T12:46:20.977Z,22.00
2023-01-15T12:48:59.611Z,24.50
2023-01-15T12:51:41.969Z,24.40
2023-01-15T12:54:20.796Z,22.80
2023-01-15T12:57:01.738Z,22.60
2023-01-15T12:59:40.795Z,15.80
2023-01-15T13:02:23.487Z,16.90
2023-01-15T13:05:00.357Z,21.10
2023-01-15T13:07:38.642Z,21.40
2023-01-15T13:10:20.420Z,15.40
2023-01-15T13:12:52.978Z,14.70
2023-01-15T13:15:31.983Z,15.10
2023-01-15T13:18:15.123Z,12.10
2023-01-15T13:20:51.771Z,13.40
2023-01-15T13:23:42.580Z,13.60
2023-01-15T13:26:27.697Z,16.50
2023-01-15T13:29:11.457Z,15.40
2023-01-15T13:32:06.601Z,15.60
2023-01-15T13:34:45.388Z,14.40
2023-01-15T13:37:25.703Z,15.60
2023-01-15T13:40:03.659Z,16.80
2023-01-15T13:42:38.131Z,15.40
2023-01-15T13:48:13.808Z,14.90
2023-01-15T13:50:55.281Z,13.90
2023-01-15T13:53:31.871Z,14.50
2023-01-15T13:56:07.615Z,14.90
2023-01-15T13:58:52.881Z,15.00
2023-01-15T14:01:33.617Z,14.40
2023-01-15T14:04:15.366Z,15.30
2023-01-15T14:06:49.032Z,15.70
2023-01-15T14:09:34.451Z,14.10
2023-01-15T14:12:18.218Z,20.90
2023-01-15T14:15:17.647Z,15.20
2023-01-15T14:18:09.701Z,17.30
2023-01-15T14:20:53.910Z,17.20
2023-01-15T14:23:53.635Z,15.50
2023-01-15T14:26:36.852Z,13.80
2023-01-15T14:29:29.359Z,14.60
2023-01-15T14:32:10.720Z,14.90
2023-01-15T14:34:44.612Z,16.20
2023-01-15T14:37:30.578Z,14.00
2023-01-15T14:40:06.279Z,17.80
2023-01-15T14:42:59.609Z,18.30
2023-01-15T14:45:36.300Z,18.40
2023-01-15T14:48:19.654Z,15.20
2023-01-15T14:50:54.112Z,17.60
2023-01-15T14:53:38.537Z,16.50
2023-01-15T14:56:19.525Z,14.90
2023-01-15T14:59:02.656Z,16.20
2023-01-15T15:01:43.500Z,17.00
2023-01-15T15:04:25.694Z,17.40
2023-01-15T15:07:01.824Z,21.80
2023-01-15T15:09:43.582Z,14.50
2023-01-15T15:12:27.253Z,15.80
2023-01-15T15:15:08.908Z,19.20
2023-01-15T15:17:54.553Z,18.70
2023-01-15T15:20:40.477Z,16.00
2023-01-15T15:23:18.551Z,17.20
2023-01-15T15:25:58.929Z,18.80
2023-01-15T15:28:32.061Z,17.30
2023-01-15T15:31:04.547Z,18.70
2023-01-15T15:33:42.372Z,22.80
2023-01-15T15:36:15.160Z,20.10
2023-01-15T15:38:56.851Z,15.70
2023-01-15T15:41:50.176Z,17.20
2023-01-15T15:44:50.196Z,18.40
2023-01-15T15:47:38.382Z,18.20
2023-01-15T15:50:22.391Z,17.20
2023-01-15T15:52:55.758Z,23.00
2023-01-15T15:55:33.577Z,16.00
2023-01-15T15:58:07.411Z,16.00
2023-01-15T16:00:43.418Z,18.50
2023-01-15T16:06:01.250Z,19.10
2023-01-15T16:08:36.154Z,18.30
2023-01-15T16:11:13.238Z,18.90
2023-01-15T16:13:49.503Z,18.10
2023-01-15T16:16:23.039Z,19.50
2023-01-15T16:18:57.317Z,18.10
2023-01-15T16:21:33.493Z,18.90
2023-01-15T16:24:08.369Z,22.70
2023-01-15T16:26:43.850Z,23.00
2023-01-15T16:29:21.774Z,27.00
2023-01-15T16:32:10.938Z,22.00
2023-01-15T16:34:48.382Z,20.10
2023-01-15T16:37:30.773Z,24.80
2023-01-15T16:40:05.902Z,20.40
2023-01-15T16:42:43.300Z,21.40
2023-01-15T16:45:26.056Z,19.10
2023-01-15T16:48:23.964Z,21.10
2023-01-15T16:50:56.629Z,20.30
2023-01-15T16:53:41.124Z,22.10
2023-01-15T16:56:29.011Z,21.00
2023-01-15T16:59:01.242Z,22.70
2023-01-15T17:01:42.030Z,26.40
2023-01-15T17:04:29.713Z,21.80
2023-01-15T17:07:05.176Z,29.50
2023-01-15T17:09:39.135Z,24.90
2023-01-15T17:12:20.134Z,24.50
2023-01-15T17:14:52.385Z,30.50
2023-01-15T17:17:30.766Z,23.10
2023-01-15T17:20:03.180Z,25.40
2023-01-15T17:22:36.462Z,27.00
2023-01-15T17:25:26.267Z,20.10
2023-01-15T17:27:59.604Z,26.50
2023-01-15T17:30:33.194Z,25.60
2023-01-15T17:33:07.814Z,28.10
2023-01-15T17:35:42.677Z,25.60
2023-01-15T17:38:14.983Z,15.90
2023-01-15T17:40:47.412Z,28.50
2023-01-15T17:43:19.763Z,31.00
2023-01-15T17:45:52.098Z,26.60
2023-01-15T17:48:24.354Z,26.40
2023-01-15T17:51:04.676Z,26.80
2023-01-15T17:53:37.104Z,24.00
2023-01-15T17:56:28.120Z,22.10
2023-01-15T17:59:29.179Z,25.70
2023-01-15T18:02:19.219Z,23.10
2023-01-15T18:05:12.363Z,25.20
2023-01-15T18:07:46.531Z,28.20
2023-01-15T18:10:21.244Z,26.40
2023-01-15T18:12:53.554Z,29.60
2023-01-15T18:15:25.753Z,29.70
2023-01-15T18:17:58.101Z,26.80
2023-01-15T18:20:31.795Z,27.90
2023-01-15T18:23:07.167Z,32.00
2023-01-15T18:25:46.068Z,36.60
2023-01-15T18:28:18.341Z,50.40
2023-01-15T18:30:51.328Z,31.60
2023-01-15T18:33:23.530Z,27.60
2023-01-15T18:36:05.179Z,29.80
2023-01-15T18:38:40.471Z,34.20
2023-01-15T18:41:37.435Z,40.80
2023-01-15T18:44:31.135Z,41.40
2023-01-15T18:47:05.764Z,40.90
2023-01-15T18:49:38.005Z,39.80
2023-01-15T18:52:27.244Z,37.30
2023-01-15T18:54:59.550Z,42.00
2023-01-15T18:57:33.316Z,41.00
2023-01-15T19:00:06.176Z,45.40
2023-01-15T19:02:40.096Z,40.90
2023-01-15T19:05:15.191Z,42.80
2023-01-15T19:07:48.441Z,47.30
2023-01-15T19:10:21.969Z,37.20
2023-01-15T19:12:54.152Z,43.90
2023-01-15T19:15:43.768Z,44.50
2023-01-15T19:18:33.273Z,47.80
2023-01-15T19:21:12.949Z,52.30
2023-01-15T19:23:46.273Z,51.60
2023-01-15T19:26:18.598Z,60.10
2023-01-15T19:28:50.807Z,52.60
2023-01-15T19:31:39.388Z,46.30
2023-01-15T19:34:32.708Z,43.40
2023-01-15T19:37:04.413Z,45.30
2023-01-15T19:39:36.613Z,48.30
2023-01-15T19:42:28.969Z,43.60
2023-01-15T19:45:18.757Z,45.20
2023-01-15T19:48:09.005Z,45.30
2023-01-15T19:50:42.857Z,44.40
2023-01-15T19:53:15.986Z,41.90
2023-01-15T19:55:48.230Z,47.10
2023-01-15T19:58:20.816Z,44.60
2023-01-15T20:00:53.478Z,49.70
2023-01-15T20:03:28.464Z,43.30
2023-01-15T20:06:00.812Z,45.50
2023-01-15T20:08:35.232Z,39.60
2023-01-15T20:11:10.962Z,44.70
2023-01-15T20:13:53.953Z,44.90
2023-01-15T20:16:28.237Z,47.60
2023-01-15T20:19:00.503Z,52.50
2023-01-15T20:21:32.832Z,50.70
2023-01-15T20:24:05.183Z,77.40
2023-01-15T20:26:37.919Z,84.80
2023-01-15T20:29:10.098Z,86.50
2023-01-15T20:31:42.500Z,67.30
2023-01-15T20:34:14.695Z,62.20
2023-01-15T20:36:47.758Z,68.80
2023-01-15T20:39:19.966Z,71.80
2023-01-15T20:42:09.607Z,78.90
2023-01-15T20:44:56.944Z,82.30
2023-01-15T20:47:47.943Z,103.80
2023-01-15T20:50:20.085Z,97.90
2023-01-15T20:52:53.826Z,102.50
2023-01-15T20:55:31.122Z,113.20
2023-01-15T20:58:05.429Z,116.80
2023-01-15T21:00:37.726Z,112.90
2023-01-15T21:03:11.250Z,117.40
2023-01-15T21:05:43.659Z,115.60
2023-01-15T21:08:15.838Z,121.90
2023-01-15T21:10:52.914Z,127.40
2023-01-15T21:13:25.126Z,111.80
2023-01-15T21:15:59.120Z,110.10
2023-01-15T21:18:32.953Z,118.90
2023-01-15T21:21:11.061Z,113.30
2023-01-15T21:23:45.569Z,120.30
2023-01-15T21:26:18.766Z,109.30
2023-01-15T21:28:53.684Z,111.60
2023-01-15T21:31:25.989Z,93.10
2023-01-15T21:33:58.990Z,75.30
2023-01-15T21:36:31.229Z,68.70
2023-01-15T21:39:05.234Z,71.70
2023-01-15T21:41:54.687Z,80.60
2023-01-15T21:44:34.128Z,70.50
2023-01-15T21:47:09.614Z,79.30
2023-01-15T21:49:42.759Z,87.50
2023-01-15T21:52:17.338Z,82.00
2023-01-15T21:54:50.333Z,77.20
2023-01-15T21:57:22.628Z,79.50
2023-01-15T21:59:54.841Z,83.60
2023-01-15T22:02:29.936Z,78.30
2023-01-15T22:05:02.378Z,94.40
2023-01-15T22:07:35.001Z,90.60
2023-01-15T22:10:09.289Z,91.50
2023-01-15T22:12:43.279Z,88.30
2023-01-15T22:15:16.808Z,84.40
2023-01-15T22:17:53.871Z,93.90
2023-01-15T22:20:26.109Z,73.00
2023-01-15T22:22:58.512Z,73.20
2023-01-15T22:25:30.795Z,71.50
2023-01-15T22:28:02.918Z,69.70
2023-01-15T22:30:37.853Z,74.30
2023-01-15T22:33:10.980Z,58.90
2023-01-15T22:35:43.213Z,68.30
2023-01-15T22:38:15.782Z,72.00
2023-01-15T22:40:48.157Z,81.40
2023-01-15T22:43:20.425Z,86.50
2023-01-15T22:45:52.679Z,68.30
2023-01-15T22:48:24.934Z,77.70
2023-01-15T22:50:57.107Z,69.20
2023-01-15T22:53:29.302Z,75.80
2023-01-15T22:56:01.997Z,73.50
2023-01-15T22:58:34.329Z,68.90
2023-01-15T23:01:06.756Z,74.80
2023-01-15T23:03:39.509Z,73.80
2023-01-15T23:06:13.783Z,78.60
2023-01-15T23:08:46.089Z,72.40
2023-01-15T23:11:18.950Z,64.90
2023-01-15T23:13:51.122Z,66.90
2023-01-15T23:16:23.895Z,73.60
2023-01-15T23:18:56.153Z,72.50
2023-01-15T23:21:29.549Z,73.10
2023-01-15T23:24:03.618Z,65.90
2023-01-15T23:26:37.267Z,64.70
2023-01-15T23:29:09.758Z,63.80
2023-01-15T23:31:42.129Z,70.30
2023-01-15T23:34:14.278Z,66.10
2023-01-15T23:36:46.566Z,68.00
2023-01-15T23:39:18.850Z,70.20
2023-01-15T23:42:08.512Z,73.20
2023-01-15T23:44:58.074Z,68.60
2023-01-15T23:47:30.295Z,73.60
2023-01-15T23:50:03.492Z,59.50
2023-01-15T23:52:35.807Z,64.60
2023-01-15T23:55:08.900Z,67.00
2023-01-15T23:57:41.057Z,67.30
